Terminal Aerodrome Forecast
Issued by NWS Duluth, MN

Home | Current Version | Previous Version | Text Only | Print | Product List | Glossary On
Versions: 1 2 3 4 5 6 7 8 9 10 11 12 13 14 15 16 17 18 19 20 21 22 23 24 25 26 27 28
851
FTUS43 KDLH 160529
TAFDLH
TAF
KDLH 160529Z 1606/1706 10007KT P6SM OVC250
     FM161500 11009KT P6SM OVC070
     FM161800 11009KT P6SM VCSH OVC040
     FM170000 08008KT 4SM SHRA OVC025
     FM170500 07006KT 2SM SHRA OVC020=

USA.gov is the U.S. government's official web portal to all federal, state and local government web resources and services.